Kendall, Washington
Current Conditions -  °F | °C
As of 2:00 PM on Thursday 27 Nov 2014 (Local Time) from CYXX Reporting Station
Broken Clouds Broken Clouds  
Wind Chill: 55°   Ceiling: 3500
Heat Index: 55°   Visibility: 15mi
Dew Point: 54°   Wind: 21mph
Humidity: 94%   Direction: 190°S
Pressure: 29.68"   Gusts: 26mph
Location:  48.8512°N, 121.903°W
Report Text: CYXX 272200Z 19018G23KT 15SM FEW020 BKN035 13/12 A2968 RMK CU1SC6 OCNL -SHRA SLP051 DENSITY ALT 300FT
Loading
Personal Weather Stations






























Interactive Weather Map New forecast layout! Learn more

10-Day Weather Forecast

Advertisements
Track Severe Weather on mobile